sensor_id;sensor_type;location;lat;lon;timestamp;temperature;humidity
25450;DHT22;13371;52.080;5.624;2024-02-28T00:00:09;6.20;99.90
25450;DHT22;13371;52.080;5.624;2024-02-28T00:02:36;6.00;99.90
25450;DHT22;13371;52.080;5.624;2024-02-28T00:05:02;6.30;99.90
25450;DHT22;13371;52.080;5.624;2024-02-28T00:07:27;6.40;99.90
25450;DHT22;13371;52.080;5.624;2024-02-28T00:09:53;6.60;99.90
25450;DHT22;13371;52.080;5.624;2024-02-28T00:12:24;6.60;99.90
25450;DHT22;13371;52.080;5.624;2024-02-28T00:14:52;6.50;99.90
25450;DHT22;13371;52.080;5.624;2024-02-28T00:17:18;6.40;99.90
25450;DHT22;13371;52.080;5.624;2024-02-28T00:19:43;6.70;99.90
25450;DHT22;13371;52.080;5.624;2024-02-28T00:22:09;6.60;99.90
25450;DHT22;13371;52.080;5.624;2024-02-28T00:24:35;6.70;99.90
25450;DHT22;13371;52.080;5.624;2024-02-28T00:27:01;6.10;99.90
25450;DHT22;13371;52.080;5.624;2024-02-28T00:29:26;6.10;99.90
25450;DHT22;13371;52.080;5.624;2024-02-28T00:31:52;6.20;99.90
25450;DHT22;13371;52.080;5.624;2024-02-28T00:34:18;6.30;99.90
25450;DHT22;13371;52.080;5.624;2024-02-28T00:36:44;6.50;99.90
25450;DHT22;13371;52.080;5.624;2024-02-28T00:39:10;6.50;99.90
25450;DHT22;13371;52.080;5.624;2024-02-28T00:41:36;6.60;99.90
25450;DHT22;13371;52.080;5.624;2024-02-28T00:44:03;6.80;99.90
25450;DHT22;13371;52.080;5.624;2024-02-28T00:46:28;6.50;99.90
25450;DHT22;13371;52.080;5.624;2024-02-28T00:48:54;6.40;99.90
25450;DHT22;13371;52.080;5.624;2024-02-28T00:51:19;6.30;99.90
25450;DHT22;13371;52.080;5.624;2024-02-28T00:53:45;6.40;99.90
25450;DHT22;13371;52.080;5.624;2024-02-28T00:56:10;6.50;99.90
25450;DHT22;13371;52.080;5.624;2024-02-28T00:58:36;6.60;99.90
25450;DHT22;13371;52.080;5.624;2024-02-28T01:01:02;6.50;99.90
25450;DHT22;13371;52.080;5.624;2024-02-28T01:03:27;6.30;99.90
25450;DHT22;13371;52.080;5.624;2024-02-28T01:05:53;6.30;99.90
25450;DHT22;13371;52.080;5.624;2024-02-28T01:08:19;6.20;99.90
25450;DHT22;13371;52.080;5.624;2024-02-28T01:10:45;6.50;99.90
25450;DHT22;13371;52.080;5.624;2024-02-28T01:13:10;6.30;99.90
25450;DHT22;13371;52.080;5.624;2024-02-28T01:15:36;6.20;99.90
25450;DHT22;13371;52.080;5.624;2024-02-28T01:18:02;6.30;99.90
25450;DHT22;13371;52.080;5.624;2024-02-28T01:20:27;6.00;99.90
25450;DHT22;13371;52.080;5.624;2024-02-28T01:22:53;6.20;99.90
25450;DHT22;13371;52.080;5.624;2024-02-28T01:25:18;6.00;99.90
25450;DHT22;13371;52.080;5.624;2024-02-28T01:27:44;6.00;99.90
25450;DHT22;13371;52.080;5.624;2024-02-28T01:30:10;6.10;99.90
25450;DHT22;13371;52.080;5.624;2024-02-28T01:32:36;6.10;99.90
25450;DHT22;13371;52.080;5.624;2024-02-28T01:35:05;6.40;99.90
25450;DHT22;13371;52.080;5.624;2024-02-28T01:37:30;6.30;99.90
25450;DHT22;13371;52.080;5.624;2024-02-28T01:39:56;6.00;99.90
25450;DHT22;13371;52.080;5.624;2024-02-28T01:42:21;6.10;99.90
25450;DHT22;13371;52.080;5.624;2024-02-28T01:44:48;6.10;99.90
25450;DHT22;13371;52.080;5.624;2024-02-28T01:47:14;6.30;99.90
25450;DHT22;13371;52.080;5.624;2024-02-28T01:49:42;6.20;99.90
25450;DHT22;13371;52.080;5.624;2024-02-28T01:52:08;6.50;99.90
25450;DHT22;13371;52.080;5.624;2024-02-28T01:54:35;6.40;99.90
25450;DHT22;13371;52.080;5.624;2024-02-28T01:57:01;6.50;99.90
25450;DHT22;13371;52.080;5.624;2024-02-28T01:59:28;6.40;99.90
25450;DHT22;13371;52.080;5.624;2024-02-28T02:01:54;6.50;99.90
25450;DHT22;13371;52.080;5.624;2024-02-28T02:04:20;6.10;99.90
25450;DHT22;13371;52.080;5.624;2024-02-28T02:06:47;5.90;99.90
25450;DHT22;13371;52.080;5.624;2024-02-28T02:09:13;5.70;99.90
25450;DHT22;13371;52.080;5.624;2024-02-28T02:11:39;5.40;99.90
25450;DHT22;13371;52.080;5.624;2024-02-28T02:14:05;5.40;99.90
25450;DHT22;13371;52.080;5.624;2024-02-28T02:16:30;5.10;99.90
25450;DHT22;13371;52.080;5.624;2024-02-28T02:18:56;5.30;99.90
25450;DHT22;13371;52.080;5.624;2024-02-28T02:21:30;5.20;99.90
25450;DHT22;13371;52.080;5.624;2024-02-28T02:23:56;5.20;99.90
25450;DHT22;13371;52.080;5.624;2024-02-28T02:26:21;5.30;99.90
25450;DHT22;13371;52.080;5.624;2024-02-28T02:28:47;5.50;99.90
25450;DHT22;13371;52.080;5.624;2024-02-28T02:31:13;5.30;99.90
25450;DHT22;13371;52.080;5.624;2024-02-28T02:33:39;5.30;99.90
25450;DHT22;13371;52.080;5.624;2024-02-28T02:36:05;5.40;99.90
25450;DHT22;13371;52.080;5.624;2024-02-28T02:38:31;5.30;99.90
25450;DHT22;13371;52.080;5.624;2024-02-28T02:40:56;5.20;99.90
25450;DHT22;13371;52.080;5.624;2024-02-28T02:43:22;5.30;99.90
25450;DHT22;13371;52.080;5.624;2024-02-28T02:45:47;5.40;99.90
25450;DHT22;13371;52.080;5.624;2024-02-28T02:48:13;5.40;99.90
25450;DHT22;13371;52.080;5.624;2024-02-28T02:50:39;5.60;99.90
25450;DHT22;13371;52.080;5.624;2024-02-28T02:53:06;5.30;99.90
25450;DHT22;13371;52.080;5.624;2024-02-28T02:55:32;5.20;99.90
25450;DHT22;13371;52.080;5.624;2024-02-28T02:57:57;5.30;99.90
25450;DHT22;13371;52.080;5.624;2024-02-28T03:00:23;5.20;99.90
25450;DHT22;13371;52.080;5.624;2024-02-28T03:02:49;5.30;99.90
25450;DHT22;13371;52.080;5.624;2024-02-28T03:05:14;5.20;99.90
25450;DHT22;13371;52.080;5.624;2024-02-28T03:07:40;5.00;99.90
25450;DHT22;13371;52.080;5.624;2024-02-28T03:10:06;5.00;99.90
25450;DHT22;13371;52.080;5.624;2024-02-28T03:12:32;5.00;99.90
25450;DHT22;13371;52.080;5.624;2024-02-28T03:14:57;5.30;99.90
25450;DHT22;13371;52.080;5.624;2024-02-28T03:17:23;5.40;99.90
25450;DHT22;13371;52.080;5.624;2024-02-28T03:19:49;5.70;99.90
25450;DHT22;13371;52.080;5.624;2024-02-28T03:22:14;5.50;99.90
25450;DHT22;13371;52.080;5.624;2024-02-28T03:24:41;4.90;99.90
25450;DHT22;13371;52.080;5.624;2024-02-28T03:27:06;5.20;99.90
25450;DHT22;13371;52.080;5.624;2024-02-28T03:29:32;5.30;99.90
25450;DHT22;13371;52.080;5.624;2024-02-28T03:31:58;5.40;99.90
25450;DHT22;13371;52.080;5.624;2024-02-28T03:34:24;5.30;99.90
25450;DHT22;13371;52.080;5.624;2024-02-28T03:36:49;5.20;99.90
25450;DHT22;13371;52.080;5.624;2024-02-28T03:39:15;5.40;99.90
25450;DHT22;13371;52.080;5.624;2024-02-28T03:41:41;5.40;99.90
25450;DHT22;13371;52.080;5.624;2024-02-28T03:44:06;5.40;99.90
25450;DHT22;13371;52.080;5.624;2024-02-28T03:46:32;5.60;99.90
25450;DHT22;13371;52.080;5.624;2024-02-28T03:48:57;5.60;99.90
25450;DHT22;13371;52.080;5.624;2024-02-28T03:51:23;5.80;99.90
25450;DHT22;13371;52.080;5.624;2024-02-28T03:53:48;5.90;99.90
25450;DHT22;13371;52.080;5.624;2024-02-28T03:56:24;5.70;99.90
25450;DHT22;13371;52.080;5.624;2024-02-28T03:58:50;5.50;99.90
25450;DHT22;13371;52.080;5.624;2024-02-28T04:01:16;5.60;99.90
25450;DHT22;13371;52.080;5.624;2024-02-28T04:03:42;5.40;99.90
25450;DHT22;13371;52.080;5.624;2024-02-28T04:06:07;5.10;99.90
25450;DHT22;13371;52.080;5.624;2024-02-28T04:08:33;4.70;99.90
25450;DHT22;13371;52.080;5.624;2024-02-28T04:10:59;4.70;99.90
25450;DHT22;13371;52.080;5.624;2024-02-28T04:13:24;4.20;99.90
25450;DHT22;13371;52.080;5.624;2024-02-28T04:15:50;4.70;99.90
25450;DHT22;13371;52.080;5.624;2024-02-28T04:18:15;4.90;99.90
25450;DHT22;13371;52.080;5.624;2024-02-28T04:20:41;5.10;99.90
25450;DHT22;13371;52.080;5.624;2024-02-28T04:23:06;5.50;99.90
25450;DHT22;13371;52.080;5.624;2024-02-28T04:25:32;5.40;99.90
25450;DHT22;13371;52.080;5.624;2024-02-28T04:27:57;5.30;99.90
25450;DHT22;13371;52.080;5.624;2024-02-28T04:30:23;5.20;99.90
25450;DHT22;13371;52.080;5.624;2024-02-28T04:32:49;5.00;99.90
25450;DHT22;13371;52.080;5.624;2024-02-28T04:35:15;5.40;99.90
25450;DHT22;13371;52.080;5.624;2024-02-28T04:37:44;5.40;99.90
25450;DHT22;13371;52.080;5.624;2024-02-28T04:40:10;5.10;99.90
25450;DHT22;13371;52.080;5.624;2024-02-28T04:42:36;5.10;99.90
25450;DHT22;13371;52.080;5.624;2024-02-28T04:45:01;5.20;99.90
25450;DHT22;13371;52.080;5.624;2024-02-28T04:47:28;5.50;99.90
25450;DHT22;13371;52.080;5.624;2024-02-28T04:49:53;5.30;99.90
25450;DHT22;13371;52.080;5.624;2024-02-28T04:52:19;4.80;99.90
25450;DHT22;13371;52.080;5.624;2024-02-28T04:54:44;4.80;99.90
25450;DHT22;13371;52.080;5.624;2024-02-28T04:57:10;5.00;99.90
25450;DHT22;13371;52.080;5.624;2024-02-28T04:59:36;4.80;99.90
25450;DHT22;13371;52.080;5.624;2024-02-28T05:02:01;5.00;99.90
25450;DHT22;13371;52.080;5.624;2024-02-28T05:04:27;5.30;99.90
25450;DHT22;13371;52.080;5.624;2024-02-28T05:06:53;5.60;99.90
25450;DHT22;13371;52.080;5.624;2024-02-28T05:09:18;5.70;99.90
25450;DHT22;13371;52.080;5.624;2024-02-28T05:11:44;5.60;99.90
25450;DHT22;13371;52.080;5.624;2024-02-28T05:14:10;5.90;99.90
25450;DHT22;13371;52.080;5.624;2024-02-28T05:16:36;5.90;99.90
25450;DHT22;13371;52.080;5.624;2024-02-28T05:19:02;5.90;99.90
25450;DHT22;13371;52.080;5.624;2024-02-28T05:21:30;5.80;99.90
25450;DHT22;13371;52.080;5.624;2024-02-28T05:23:55;5.80;99.90
25450;DHT22;13371;52.080;5.624;2024-02-28T05:26:21;5.80;99.90
25450;DHT22;13371;52.080;5.624;2024-02-28T05:28:46;6.00;99.90
25450;DHT22;13371;52.080;5.624;2024-02-28T05:31:26;6.10;99.90
25450;DHT22;13371;52.080;5.624;2024-02-28T05:33:53;5.90;99.90
25450;DHT22;13371;52.080;5.624;2024-02-28T05:36:22;5.90;99.90
25450;DHT22;13371;52.080;5.624;2024-02-28T05:38:49;5.90;99.90
25450;DHT22;13371;52.080;5.624;2024-02-28T05:41:18;5.70;99.90
25450;DHT22;13371;52.080;5.624;2024-02-28T05:43:44;5.90;99.90
25450;DHT22;13371;52.080;5.624;2024-02-28T05:46:10;5.70;99.90
25450;DHT22;13371;52.080;5.624;2024-02-28T05:48:36;5.00;99.90
25450;DHT22;13371;52.080;5.624;2024-02-28T05:51:01;5.40;99.90
25450;DHT22;13371;52.080;5.624;2024-02-28T05:53:27;5.50;99.90
25450;DHT22;13371;52.080;5.624;2024-02-28T05:55:53;5.80;99.90
25450;DHT22;13371;52.080;5.624;2024-02-28T05:58:19;6.00;99.90
25450;DHT22;13371;52.080;5.624;2024-02-28T06:00:45;5.70;99.90
25450;DHT22;13371;52.080;5.624;2024-02-28T06:03:10;5.90;99.90
25450;DHT22;13371;52.080;5.624;2024-02-28T06:05:36;5.50;99.90
25450;DHT22;13371;52.080;5.624;2024-02-28T06:08:01;5.50;99.90
25450;DHT22;13371;52.080;5.624;2024-02-28T06:10:27;5.60;99.90
25450;DHT22;13371;52.080;5.624;2024-02-28T06:12:53;5.70;99.90
25450;DHT22;13371;52.080;5.624;2024-02-28T06:15:19;5.50;99.90
25450;DHT22;13371;52.080;5.624;2024-02-28T06:17:45;5.70;99.90
25450;DHT22;13371;52.080;5.624;2024-02-28T06:20:10;5.70;99.90
25450;DHT22;13371;52.080;5.624;2024-02-28T06:22:36;5.90;99.90
25450;DHT22;13371;52.080;5.624;2024-02-28T06:25:02;5.90;99.90
25450;DHT22;13371;52.080;5.624;2024-02-28T06:27:27;5.90;99.90
25450;DHT22;13371;52.080;5.624;2024-02-28T06:29:53;5.90;99.90
25450;DHT22;13371;52.080;5.624;2024-02-28T06:32:18;5.90;99.90
25450;DHT22;13371;52.080;5.624;2024-02-28T06:34:44;5.70;99.90
25450;DHT22;13371;52.080;5.624;2024-02-28T06:37:09;5.70;99.90
25450;DHT22;13371;52.080;5.624;2024-02-28T06:39:35;5.60;99.90
25450;DHT22;13371;52.080;5.624;2024-02-28T06:42:00;5.00;99.90
25450;DHT22;13371;52.080;5.624;2024-02-28T06:44:26;5.00;99.90
25450;DHT22;13371;52.080;5.624;2024-02-28T06:46:51;5.20;99.90
25450;DHT22;13371;52.080;5.624;2024-02-28T06:49:17;5.40;99.90
25450;DHT22;13371;52.080;5.624;2024-02-28T06:51:44;5.40;99.90
25450;DHT22;13371;52.080;5.624;2024-02-28T06:54:10;5.40;99.90
25450;DHT22;13371;52.080;5.624;2024-02-28T06:56:36;5.30;99.90
25450;DHT22;13371;52.080;5.624;2024-02-28T06:59:01;5.60;99.90
25450;DHT22;13371;52.080;5.624;2024-02-28T07:01:27;5.70;99.90
25450;DHT22;13371;52.080;5.624;2024-02-28T07:03:53;5.70;99.90
25450;DHT22;13371;52.080;5.624;2024-02-28T07:06:18;5.60;99.90
25450;DHT22;13371;52.080;5.624;2024-02-28T07:08:44;5.70;99.90
25450;DHT22;13371;52.080;5.624;2024-02-28T07:11:15;5.90;99.90
25450;DHT22;13371;52.080;5.624;2024-02-28T07:13:41;5.90;99.90
25450;DHT22;13371;52.080;5.624;2024-02-28T07:16:07;6.00;99.90
25450;DHT22;13371;52.080;5.624;2024-02-28T07:18:33;5.90;99.90
25450;DHT22;13371;52.080;5.624;2024-02-28T07:20:59;5.70;99.90
25450;DHT22;13371;52.080;5.624;2024-02-28T07:23:25;5.50;99.90
25450;DHT22;13371;52.080;5.624;2024-02-28T07:25:50;5.40;99.90
25450;DHT22;13371;52.080;5.624;2024-02-28T07:28:16;5.30;99.90
25450;DHT22;13371;52.080;5.624;2024-02-28T07:30:41;5.50;99.90
25450;DHT22;13371;52.080;5.624;2024-02-28T07:33:09;5.30;99.90
25450;DHT22;13371;52.080;5.624;2024-02-28T07:35:45;5.40;99.90
25450;DHT22;13371;52.080;5.624;2024-02-28T07:38:11;5.40;99.90
25450;DHT22;13371;52.080;5.624;2024-02-28T07:40:36;5.60;99.90
25450;DHT22;13371;52.080;5.624;2024-02-28T07:43:02;5.30;99.90
25450;DHT22;13371;52.080;5.624;2024-02-28T07:45:28;5.30;99.90
25450;DHT22;13371;52.080;5.624;2024-02-28T07:47:53;5.50;99.90
25450;DHT22;13371;52.080;5.624;2024-02-28T07:50:19;5.60;99.90
25450;DHT22;13371;52.080;5.624;2024-02-28T07:52:44;5.70;99.90
25450;DHT22;13371;52.080;5.624;2024-02-28T07:55:10;5.60;99.90
25450;DHT22;13371;52.080;5.624;2024-02-28T07:57:36;5.40;99.90
25450;DHT22;13371;52.080;5.624;2024-02-28T08:00:02;5.40;99.90
25450;DHT22;13371;52.080;5.624;2024-02-28T08:02:28;5.20;99.90
25450;DHT22;13371;52.080;5.624;2024-02-28T08:04:53;5.30;99.90
25450;DHT22;13371;52.080;5.624;2024-02-28T08:07:19;5.20;99.90
25450;DHT22;13371;52.080;5.624;2024-02-28T08:09:44;5.10;99.90
25450;DHT22;13371;52.080;5.624;2024-02-28T08:12:10;5.20;99.90
25450;DHT22;13371;52.080;5.624;2024-02-28T08:14:36;5.50;99.90
25450;DHT22;13371;52.080;5.624;2024-02-28T08:17:01;5.40;99.90
25450;DHT22;13371;52.080;5.624;2024-02-28T08:19:27;5.50;99.90
25450;DHT22;13371;52.080;5.624;2024-02-28T08:21:52;5.60;99.90
25450;DHT22;13371;52.080;5.624;2024-02-28T08:24:18;5.50;99.90
25450;DHT22;13371;52.080;5.624;2024-02-28T08:26:43;5.60;99.90
25450;DHT22;13371;52.080;5.624;2024-02-28T08:29:09;5.60;99.90
25450;DHT22;13371;52.080;5.624;2024-02-28T08:31:43;5.70;99.90
25450;DHT22;13371;52.080;5.624;2024-02-28T08:34:09;5.70;99.90
25450;DHT22;13371;52.080;5.624;2024-02-28T08:36:35;5.70;99.90
25450;DHT22;13371;52.080;5.624;2024-02-28T08:39:01;6.00;99.90
25450;DHT22;13371;52.080;5.624;2024-02-28T08:41:27;6.10;99.90
25450;DHT22;13371;52.080;5.624;2024-02-28T08:43:52;6.20;99.90
25450;DHT22;13371;52.080;5.624;2024-02-28T08:46:18;6.10;99.90
25450;DHT22;13371;52.080;5.624;2024-02-28T08:48:43;6.00;99.90
25450;DHT22;13371;52.080;5.624;2024-02-28T08:51:09;6.00;99.90
25450;DHT22;13371;52.080;5.624;2024-02-28T08:53:34;6.20;99.90
25450;DHT22;13371;52.080;5.624;2024-02-28T08:56:00;6.30;99.90
25450;DHT22;13371;52.080;5.624;2024-02-28T08:58:26;6.20;99.90
25450;DHT22;13371;52.080;5.624;2024-02-28T09:00:51;6.20;99.90
25450;DHT22;13371;52.080;5.624;2024-02-28T09:03:17;6.60;99.90
25450;DHT22;13371;52.080;5.624;2024-02-28T09:05:43;6.60;99.90
25450;DHT22;13371;52.080;5.624;2024-02-28T09:08:08;6.70;99.90
25450;DHT22;13371;52.080;5.624;2024-02-28T09:10:34;6.80;99.90
25450;DHT22;13371;52.080;5.624;2024-02-28T09:13:00;6.60;99.90
25450;DHT22;13371;52.080;5.624;2024-02-28T09:15:25;6.30;99.90
25450;DHT22;13371;52.080;5.624;2024-02-28T09:17:51;6.00;99.90
25450;DHT22;13371;52.080;5.624;2024-02-28T09:20:17;6.30;99.90
25450;DHT22;13371;52.080;5.624;2024-02-28T09:22:43;6.40;99.90
25450;DHT22;13371;52.080;5.624;2024-02-28T09:25:09;6.50;99.90
25450;DHT22;13371;52.080;5.624;2024-02-28T09:27:38;6.30;99.90
25450;DHT22;13371;52.080;5.624;2024-02-28T09:30:04;6.40;99.90
25450;DHT22;13371;52.080;5.624;2024-02-28T09:32:29;6.40;99.90
25450;DHT22;13371;52.080;5.624;2024-02-28T09:34:55;6.30;99.90
25450;DHT22;13371;52.080;5.624;2024-02-28T09:37:21;6.20;99.90
25450;DHT22;13371;52.080;5.624;2024-02-28T09:39:48;6.20;99.90
25450;DHT22;13371;52.080;5.624;2024-02-28T09:42:14;6.40;99.90
25450;DHT22;13371;52.080;5.624;2024-02-28T09:44:40;6.50;99.90
25450;DHT22;13371;52.080;5.624;2024-02-28T09:47:08;6.80;99.90
25450;DHT22;13371;52.080;5.624;2024-02-28T09:49:34;6.40;99.90
25450;DHT22;13371;52.080;5.624;2024-02-28T09:52:03;6.40;99.90
25450;DHT22;13371;52.080;5.624;2024-02-28T09:54:29;6.40;99.90
25450;DHT22;13371;52.080;5.624;2024-02-28T09:56:55;6.60;99.90
25450;DHT22;13371;52.080;5.624;2024-02-28T09:59:23;6.50;99.90
25450;DHT22;13371;52.080;5.624;2024-02-28T10:01:55;6.50;99.90
25450;DHT22;13371;52.080;5.624;2024-02-28T10:04:21;6.80;99.90
25450;DHT22;13371;52.080;5.624;2024-02-28T10:06:47;6.60;99.90
25450;DHT22;13371;52.080;5.624;2024-02-28T10:09:15;6.50;99.90
25450;DHT22;13371;52.080;5.624;2024-02-28T10:11:41;6.50;99.90
25450;DHT22;13371;52.080;5.624;2024-02-28T10:14:09;6.60;99.90
25450;DHT22;13371;52.080;5.624;2024-02-28T10:16:38;6.30;99.90
25450;DHT22;13371;52.080;5.624;2024-02-28T10:19:06;6.40;99.90
25450;DHT22;13371;52.080;5.624;2024-02-28T10:21:32;6.70;99.90
25450;DHT22;13371;52.080;5.624;2024-02-28T10:24:00;6.70;99.90
25450;DHT22;13371;52.080;5.624;2024-02-28T10:26:26;7.10;99.90
25450;DHT22;13371;52.080;5.624;2024-02-28T10:28:52;7.10;99.90
25450;DHT22;13371;52.080;5.624;2024-02-28T10:31:17;7.10;99.90
25450;DHT22;13371;52.080;5.624;2024-02-28T10:33:43;7.40;99.90
25450;DHT22;13371;52.080;5.624;2024-02-28T10:36:09;7.60;99.90
25450;DHT22;13371;52.080;5.624;2024-02-28T10:38:35;7.70;99.90
25450;DHT22;13371;52.080;5.624;2024-02-28T10:41:04;7.80;99.90
25450;DHT22;13371;52.080;5.624;2024-02-28T10:43:30;7.70;99.90
25450;DHT22;13371;52.080;5.624;2024-02-28T10:45:59;7.50;99.90
25450;DHT22;13371;52.080;5.624;2024-02-28T10:48:25;7.80;99.90
25450;DHT22;13371;52.080;5.624;2024-02-28T10:50:51;7.90;99.90
25450;DHT22;13371;52.080;5.624;2024-02-28T10:53:21;7.80;99.90
25450;DHT22;13371;52.080;5.624;2024-02-28T10:55:48;7.60;99.90
25450;DHT22;13371;52.080;5.624;2024-02-28T10:58:15;7.60;99.90
25450;DHT22;13371;52.080;5.624;2024-02-28T11:00:42;7.90;99.90
25450;DHT22;13371;52.080;5.624;2024-02-28T11:03:10;8.10;99.90
25450;DHT22;13371;52.080;5.624;2024-02-28T11:05:37;8.40;99.90
25450;DHT22;13371;52.080;5.624;2024-02-28T11:08:08;8.30;99.90
25450;DHT22;13371;52.080;5.624;2024-02-28T11:10:34;8.50;99.90
25450;DHT22;13371;52.080;5.624;2024-02-28T11:12:59;8.60;99.90
25450;DHT22;13371;52.080;5.624;2024-02-28T11:15:25;8.70;99.90
25450;DHT22;13371;52.080;5.624;2024-02-28T11:17:54;9.00;99.90
25450;DHT22;13371;52.080;5.624;2024-02-28T11:20:22;9.10;99.90
25450;DHT22;13371;52.080;5.624;2024-02-28T11:22:48;9.10;99.90
25450;DHT22;13371;52.080;5.624;2024-02-28T11:25:14;9.10;99.90
25450;DHT22;13371;52.080;5.624;2024-02-28T11:27:47;8.90;99.90
25450;DHT22;13371;52.080;5.624;2024-02-28T11:30:13;8.70;99.90
25450;DHT22;13371;52.080;5.624;2024-02-28T11:32:39;8.90;99.90
25450;DHT22;13371;52.080;5.624;2024-02-28T11:35:05;9.10;99.90
25450;DHT22;13371;52.080;5.624;2024-02-28T11:37:31;9.00;99.90
25450;DHT22;13371;52.080;5.624;2024-02-28T11:39:58;9.20;99.90
25450;DHT22;13371;52.080;5.624;2024-02-28T11:42:23;9.10;99.90
25450;DHT22;13371;52.080;5.624;2024-02-28T11:44:55;9.10;99.90
25450;DHT22;13371;52.080;5.624;2024-02-28T11:47:23;8.80;99.90
25450;DHT22;13371;52.080;5.624;2024-02-28T11:49:49;9.00;99.90
25450;DHT22;13371;52.080;5.624;2024-02-28T11:52:15;9.00;99.90
25450;DHT22;13371;52.080;5.624;2024-02-28T11:54:40;9.30;99.90
25450;DHT22;13371;52.080;5.624;2024-02-28T11:57:07;9.40;99.90
25450;DHT22;13371;52.080;5.624;2024-02-28T11:59:36;9.60;99.90
25450;DHT22;13371;52.080;5.624;2024-02-28T12:02:15;9.40;99.90
25450;DHT22;13371;52.080;5.624;2024-02-28T12:04:45;9.50;99.90
25450;DHT22;13371;52.080;5.624;2024-02-28T12:07:13;9.60;99.90
25450;DHT22;13371;52.080;5.624;2024-02-28T12:09:39;9.50;99.90
25450;DHT22;13371;52.080;5.624;2024-02-28T12:12:06;9.30;99.90
25450;DHT22;13371;52.080;5.624;2024-02-28T12:14:36;9.40;99.90
25450;DHT22;13371;52.080;5.624;2024-02-28T12:17:03;9.30;99.90
25450;DHT22;13371;52.080;5.624;2024-02-28T12:19:29;9.00;99.90
25450;DHT22;13371;52.080;5.624;2024-02-28T12:21:55;9.30;99.90
25450;DHT22;13371;52.080;5.624;2024-02-28T12:24:20;9.30;99.90
25450;DHT22;13371;52.080;5.624;2024-02-28T12:26:46;9.20;99.90
25450;DHT22;13371;52.080;5.624;2024-02-28T12:29:12;9.40;99.90
25450;DHT22;13371;52.080;5.624;2024-02-28T12:31:39;9.40;99.90
25450;DHT22;13371;52.080;5.624;2024-02-28T12:34:04;9.40;99.90
25450;DHT22;13371;52.080;5.624;2024-02-28T12:36:30;9.30;99.90
25450;DHT22;13371;52.080;5.624;2024-02-28T12:38:58;9.60;99.90
25450;DHT22;13371;52.080;5.624;2024-02-28T12:41:25;9.80;99.90
25450;DHT22;13371;52.080;5.624;2024-02-28T12:43:51;9.70;99.90
25450;DHT22;13371;52.080;5.624;2024-02-28T12:46:17;9.70;99.90
25450;DHT22;13371;52.080;5.624;2024-02-28T12:48:42;9.50;99.90
25450;DHT22;13371;52.080;5.624;2024-02-28T12:51:13;9.40;99.90
25450;DHT22;13371;52.080;5.624;2024-02-28T12:53:45;9.40;99.90
25450;DHT22;13371;52.080;5.624;2024-02-28T12:56:11;9.60;99.90
25450;DHT22;13371;52.080;5.624;2024-02-28T12:58:37;9.80;99.90
25450;DHT22;13371;52.080;5.624;2024-02-28T13:01:03;10.10;99.90
25450;DHT22;13371;52.080;5.624;2024-02-28T13:03:30;10.30;99.90
25450;DHT22;13371;52.080;5.624;2024-02-28T13:05:55;10.40;99.90
25450;DHT22;13371;52.080;5.624;2024-02-28T13:08:21;10.50;99.90
25450;DHT22;13371;52.080;5.624;2024-02-28T13:10:47;10.80;99.90
25450;DHT22;13371;52.080;5.624;2024-02-28T13:13:12;10.70;99.90
25450;DHT22;13371;52.080;5.624;2024-02-28T13:15:39;10.70;99.90
25450;DHT22;13371;52.080;5.624;2024-02-28T13:18:05;10.50;99.90
25450;DHT22;13371;52.080;5.624;2024-02-28T13:20:34;10.30;99.90
25450;DHT22;13371;52.080;5.624;2024-02-28T13:23:00;10.50;99.90
25450;DHT22;13371;52.080;5.624;2024-02-28T13:25:26;10.70;99.90
25450;DHT22;13371;52.080;5.624;2024-02-28T13:27:52;10.80;99.90
25450;DHT22;13371;52.080;5.624;2024-02-28T13:30:17;10.70;99.90
25450;DHT22;13371;52.080;5.624;2024-02-28T13:32:43;10.70;99.90
25450;DHT22;13371;52.080;5.624;2024-02-28T13:35:09;10.80;99.90
25450;DHT22;13371;52.080;5.624;2024-02-28T13:37:35;10.80;99.90
25450;DHT22;13371;52.080;5.624;2024-02-28T13:40:02;11.00;99.90
25450;DHT22;13371;52.080;5.624;2024-02-28T13:42:30;11.10;99.90
25450;DHT22;13371;52.080;5.624;2024-02-28T13:44:55;11.00;99.90
25450;DHT22;13371;52.080;5.624;2024-02-28T13:47:21;11.00;99.90
25450;DHT22;13371;52.080;5.624;2024-02-28T13:49:49;11.20;99.90
25450;DHT22;13371;52.080;5.624;2024-02-28T13:52:15;11.50;99.90
25450;DHT22;13371;52.080;5.624;2024-02-28T13:54:41;11.30;99.90
25450;DHT22;13371;52.080;5.624;2024-02-28T13:57:06;11.30;99.90
25450;DHT22;13371;52.080;5.624;2024-02-28T13:59:32;11.20;99.90
25450;DHT22;13371;52.080;5.624;2024-02-28T14:01:58;11.00;99.90
25450;DHT22;13371;52.080;5.624;2024-02-28T14:04:29;11.30;99.90
25450;DHT22;13371;52.080;5.624;2024-02-28T14:06:55;11.40;99.90
25450;DHT22;13371;52.080;5.624;2024-02-28T14:09:21;11.40;99.90
25450;DHT22;13371;52.080;5.624;2024-02-28T14:11:47;11.20;99.90
25450;DHT22;13371;52.080;5.624;2024-02-28T14:14:15;11.30;99.90
25450;DHT22;13371;52.080;5.624;2024-02-28T14:16:41;11.40;99.90
25450;DHT22;13371;52.080;5.624;2024-02-28T14:19:06;11.60;99.90
25450;DHT22;13371;52.080;5.624;2024-02-28T14:21:32;11.50;99.90
25450;DHT22;13371;52.080;5.624;2024-02-28T14:23:58;11.70;99.90
25450;DHT22;13371;52.080;5.624;2024-02-28T14:26:24;11.70;99.90
25450;DHT22;13371;52.080;5.624;2024-02-28T14:28:50;11.90;99.90
25450;DHT22;13371;52.080;5.624;2024-02-28T14:31:15;11.90;99.90
25450;DHT22;13371;52.080;5.624;2024-02-28T14:33:41;11.70;99.90
25450;DHT22;13371;52.080;5.624;2024-02-28T14:36:07;11.40;99.90
25450;DHT22;13371;52.080;5.624;2024-02-28T14:38:32;11.10;99.90
25450;DHT22;13371;52.080;5.624;2024-02-28T14:40:58;10.70;99.90
25450;DHT22;13371;52.080;5.624;2024-02-28T14:43:24;10.80;99.90
25450;DHT22;13371;52.080;5.624;2024-02-28T14:45:49;11.00;99.90
25450;DHT22;13371;52.080;5.624;2024-02-28T14:48:15;11.20;99.90
25450;DHT22;13371;52.080;5.624;2024-02-28T14:50:41;11.30;99.90
25450;DHT22;13371;52.080;5.624;2024-02-28T14:53:07;11.30;99.90
25450;DHT22;13371;52.080;5.624;2024-02-28T14:55:33;11.40;99.90
25450;DHT22;13371;52.080;5.624;2024-02-28T14:57:59;11.60;99.90
25450;DHT22;13371;52.080;5.624;2024-02-28T15:00:25;11.70;99.90
25450;DHT22;13371;52.080;5.624;2024-02-28T15:02:51;11.30;99.90
25450;DHT22;13371;52.080;5.624;2024-02-28T15:05:19;11.30;99.90
25450;DHT22;13371;52.080;5.624;2024-02-28T15:07:44;11.30;99.90
25450;DHT22;13371;52.080;5.624;2024-02-28T15:10:10;11.30;99.90
25450;DHT22;13371;52.080;5.624;2024-02-28T15:12:36;11.40;99.90
25450;DHT22;13371;52.080;5.624;2024-02-28T15:15:03;11.60;99.90
25450;DHT22;13371;52.080;5.624;2024-02-28T15:17:32;11.40;99.90
25450;DHT22;13371;52.080;5.624;2024-02-28T15:19:59;11.10;99.90
25450;DHT22;13371;52.080;5.624;2024-02-28T15:22:27;11.00;99.90
25450;DHT22;13371;52.080;5.624;2024-02-28T15:24:54;11.00;99.90
25450;DHT22;13371;52.080;5.624;2024-02-28T15:27:19;11.20;99.90
25450;DHT22;13371;52.080;5.624;2024-02-28T15:29:46;11.50;99.90
25450;DHT22;13371;52.080;5.624;2024-02-28T15:32:12;11.10;99.90
25450;DHT22;13371;52.080;5.624;2024-02-28T15:34:40;11.10;99.90